Time,TemperatureF,DewpointF,PressureIn,WindDirection,WindDirectionDegrees,WindSpeedMPH,WindSpeedGustMPH,Humidity,HourlyPrecipIn,Conditions,Clouds,dailyrainin,SoftwareType,DateUTC
2013-02-24 00:01:00,45.0,10.0,29.79,WSW,240,0.0,0.0,24,0.00,,,0.00,,2013-02-24 06:01:00,
2013-02-24 00:11:00,45.0,10.0,29.79,WSW,240,0.0,0.0,24,0.00,,,0.00,,2013-02-24 06:11:00,
2013-02-24 00:21:00,45.0,10.0,29.78,West,281,0.0,0.0,24,0.00,,,0.00,,2013-02-24 06:21:00,
2013-02-24 00:31:00,45.0,10.0,29.78,West,281,0.0,0.0,24,0.00,,,0.00,,2013-02-24 06:31:00,
2013-02-24 00:42:00,45.0,10.0,29.78,West,281,0.0,0.0,24,0.00,,,0.00,,2013-02-24 06:42:00,
2013-02-24 00:52:00,45.0,12.0,29.77,SW,230,0.0,0.0,26,0.00,,,0.00,,2013-02-24 06:52:00,
2013-02-24 01:01:00,45.0,12.0,29.77,SW,230,0.0,0.0,26,0.00,,,0.00,,2013-02-24 07:01:00,
2013-02-24 01:12:00,45.0,12.0,29.77,SW,230,0.0,0.0,26,0.00,,,0.00,,2013-02-24 07:12:00,
2013-02-24 01:21:00,45.0,12.0,29.76,WNW,302,0.0,0.0,26,0.00,,,0.00,,2013-02-24 07:21:00,
2013-02-24 01:31:00,45.0,12.0,29.76,WNW,302,0.0,0.0,26,0.00,,,0.00,,2013-02-24 07:31:00,
2013-02-24 01:42:00,45.0,12.0,29.76,WNW,302,0.0,0.0,26,0.00,,,0.00,,2013-02-24 07:42:00,
2013-02-24 01:52:00,46.0,12.0,29.75,WNW,292,0.0,0.0,25,0.00,,,0.00,,2013-02-24 07:52:00,
2013-02-24 02:01:00,46.0,12.0,29.75,WNW,292,0.0,0.0,25,0.00,,,0.00,,2013-02-24 08:01:00,
2013-02-24 02:11:00,46.0,12.0,29.75,WNW,292,0.0,0.0,25,0.00,,,0.00,,2013-02-24 08:11:00,
2013-02-24 02:22:00,49.0,12.0,29.73,WNW,301,0.0,3.0,22,0.00,,,0.00,,2013-02-24 08:22:00,
2013-02-24 02:31:00,49.0,12.0,29.73,WNW,301,0.0,3.0,22,0.00,,,0.00,,2013-02-24 08:31:00,
2013-02-24 02:42:00,49.0,12.0,29.73,WNW,301,0.0,3.0,22,0.00,,,0.00,,2013-02-24 08:42:00,
2013-02-24 02:54:00,49.0,12.0,29.73,WNW,301,0.0,3.0,22,0.00,,,0.00,,2013-02-24 08:54:00,
2013-02-24 07:55:00,48.0,10.0,29.69,SSW,200,0.0,7.0,21,0.00,,,0.00,,2013-02-24 13:55:00,
2013-02-24 08:04:00,48.0,10.0,29.69,SSW,200,0.0,7.0,21,0.00,,,0.00,,2013-02-24 14:04:00,
2013-02-24 08:13:00,48.0,9.0,29.70,WNW,289,1.0,8.0,20,0.00,,,0.00,,2013-02-24 14:13:00,
2013-02-24 08:24:00,48.0,9.0,29.70,WNW,289,1.0,8.0,20,0.00,,,0.00,,2013-02-24 14:24:00,
2013-02-24 08:45:00,48.0,9.0,29.70,WNW,289,1.0,8.0,20,0.00,,,0.00,,2013-02-24 14:45:00,
2013-02-24 08:54:00,51.0,10.0,29.71,WNW,285,3.0,16.0,19,0.00,,,0.00,,2013-02-24 14:54:00,
2013-02-24 09:02:00,51.0,10.0,29.71,WNW,285,3.0,16.0,19,0.00,,,0.00,,2013-02-24 15:02:00,
2013-02-24 09:13:00,53.0,11.0,29.70,WSW,247,4.0,12.0,18,0.00,,,0.00,,2013-02-24 15:13:00,
2013-02-24 09:22:00,53.0,11.0,29.70,WSW,247,4.0,12.0,18,0.00,,,0.00,,2013-02-24 15:22:00,
2013-02-24 09:32:00,53.0,11.0,29.70,WSW,247,4.0,12.0,18,0.00,,,0.00,,2013-02-24 15:32:00,
2013-02-24 09:42:00,53.0,11.0,29.70,WSW,247,4.0,12.0,18,0.00,,,0.00,,2013-02-24 15:42:00,
2013-02-24 09:53:00,55.0,11.0,29.72,West,277,2.0,12.0,17,0.00,,,0.00,,2013-02-24 15:53:00,
2013-02-24 10:01:00,55.0,11.0,29.72,West,277,2.0,12.0,17,0.00,,,0.00,,2013-02-24 16:01:00,
2013-02-24 10:11:00,55.0,11.0,29.72,West,277,2.0,12.0,17,0.00,,,0.00,,2013-02-24 16:11:00,
2013-02-24 10:21:00,57.0,10.0,29.70,West,277,3.0,13.0,15,0.00,,,0.00,,2013-02-24 16:21:00,
2013-02-24 10:32:00,57.0,10.0,29.70,West,277,3.0,13.0,15,0.00,,,0.00,,2013-02-24 16:32:00,
2013-02-24 10:42:00,57.0,10.0,29.70,West,277,3.0,13.0,15,0.00,,,0.00,,2013-02-24 16:42:00,
2013-02-24 10:52:00,61.0,10.0,29.70,WSW,251,1.0,14.0,13,0.00,,,0.00,,2013-02-24 16:52:00,
2013-02-24 11:01:00,61.0,10.0,29.70,WSW,251,1.0,14.0,13,0.00,,,0.00,,2013-02-24 17:01:00,
2013-02-24 11:11:00,61.0,10.0,29.70,WSW,251,1.0,14.0,13,0.00,,,0.00,,2013-02-24 17:11:00,
2013-02-24 11:21:00,63.0,8.0,29.70,WNW,292,5.0,14.0,11,0.00,,,0.00,,2013-02-24 17:21:00,
2013-02-24 11:32:00,63.0,8.0,29.70,WNW,292,5.0,14.0,11,0.00,,,0.00,,2013-02-24 17:32:00,
2013-02-24 11:42:00,63.0,8.0,29.70,WNW,292,5.0,14.0,11,0.00,,,0.00,,2013-02-24 17:42:00,
2013-02-24 11:52:00,64.0,10.0,29.69,SSE,154,3.0,20.0,12,0.00,,,0.00,,2013-02-24 17:52:00,
2013-02-24 12:01:00,64.0,10.0,29.69,SSE,154,3.0,20.0,12,0.00,,,0.00,,2013-02-24 18:01:00,
2013-02-24 12:11:00,64.0,10.0,29.69,SSE,154,3.0,20.0,12,0.00,,,0.00,,2013-02-24 18:11:00,
2013-02-24 12:22:00,65.0,13.0,29.67,SSW,206,6.0,20.0,13,0.00,,,0.00,,2013-02-24 18:22:00,
2013-02-24 12:31:00,65.0,13.0,29.67,SSW,206,6.0,20.0,13,0.00,,,0.00,,2013-02-24 18:31:00,
2013-02-24 12:42:00,65.0,13.0,29.67,SSW,206,6.0,20.0,13,0.00,,,0.00,,2013-02-24 18:42:00,
2013-02-24 12:52:00,67.0,11.0,29.66,WSW,240,6.0,17.0,11,0.00,,,0.00,,2013-02-24 18:52:00,
2013-02-24 13:01:00,67.0,11.0,29.66,WSW,240,6.0,17.0,11,0.00,,,0.00,,2013-02-24 19:01:00,
2013-02-24 13:11:00,67.0,11.0,29.66,WSW,240,6.0,17.0,11,0.00,,,0.00,,2013-02-24 19:11:00,
2013-02-24 13:22:00,67.0,11.0,29.64,SSW,195,8.0,18.0,11,0.00,,,0.00,,2013-02-24 19:22:00,
2013-02-24 13:32:00,67.0,11.0,29.64,SSW,195,8.0,18.0,11,0.00,,,0.00,,2013-02-24 19:32:00,
2013-02-24 13:42:00,67.0,11.0,29.64,SSW,195,8.0,18.0,11,0.00,,,0.00,,2013-02-24 19:42:00,
2013-02-24 13:52:00,69.0,12.0,29.61,SW,234,5.0,18.0,11,0.00,,,0.00,,2013-02-24 19:52:00,
2013-02-24 14:02:00,69.0,12.0,29.61,SW,234,5.0,18.0,11,0.00,,,0.00,,2013-02-24 20:02:00,
2013-02-24 14:11:00,69.0,12.0,29.61,SW,234,5.0,18.0,11,0.00,,,0.00,,2013-02-24 20:11:00,
2013-02-24 14:21:00,70.0,9.0,29.59,SW,222,0.0,26.0,9,0.00,,,0.00,,2013-02-24 20:21:00,
2013-02-24 14:31:00,70.0,9.0,29.59,SW,222,0.0,26.0,9,0.00,,,0.00,,2013-02-24 20:31:00,
2013-02-24 14:42:00,70.0,9.0,29.59,SW,222,0.0,26.0,9,0.00,,,0.00,,2013-02-24 20:42:00,
2013-02-24 14:52:00,69.0,8.0,29.57,NNW,333,6.0,24.0,9,0.00,,,0.00,,2013-02-24 20:52:00,
2013-02-24 15:01:00,69.0,8.0,29.57,NNW,333,6.0,24.0,9,0.00,,,0.00,,2013-02-24 21:01:00,
2013-02-24 15:11:00,69.0,8.0,29.57,NNW,333,6.0,24.0,9,0.00,,,0.00,,2013-02-24 21:11:00,
2013-02-24 15:21:00,70.0,9.0,29.54,SW,220,1.0,24.0,9,0.00,,,0.00,,2013-02-24 21:21:00,
2013-02-24 15:32:00,70.0,9.0,29.54,SW,220,1.0,24.0,9,0.00,,,0.00,,2013-02-24 21:32:00,
2013-02-24 15:42:00,70.0,9.0,29.54,SW,220,1.0,24.0,9,0.00,,,0.00,,2013-02-24 21:42:00,
2013-02-24 15:52:00,70.0,9.0,29.52,South,175,6.0,31.0,9,0.00,,,0.00,,2013-02-24 21:52:00,
2013-02-24 16:01:00,70.0,9.0,29.52,South,175,6.0,31.0,9,0.00,,,0.00,,2013-02-24 22:01:00,
2013-02-24 16:11:00,70.0,9.0,29.52,South,175,6.0,31.0,9,0.00,,,0.00,,2013-02-24 22:11:00,
2013-02-24 16:21:00,69.0,8.0,29.52,SSW,192,3.0,25.0,9,0.00,,,0.00,,2013-02-24 22:21:00,
2013-02-24 16:31:00,69.0,8.0,29.52,SSW,192,3.0,25.0,9,0.00,,,0.00,,2013-02-24 22:31:00,
2013-02-24 16:42:00,69.0,8.0,29.52,SSW,192,3.0,25.0,9,0.00,,,0.00,,2013-02-24 22:42:00,
2013-02-24 16:52:00,70.0,9.0,29.51,SW,232,5.0,32.0,9,0.00,,,0.00,,2013-02-24 22:52:00,
2013-02-24 17:02:00,70.0,9.0,29.51,SW,232,5.0,32.0,9,0.00,,,0.00,,2013-02-24 23:02:00,
2013-02-24 17:11:00,70.0,9.0,29.51,SW,232,5.0,32.0,9,0.00,,,0.00,,2013-02-24 23:11:00,
2013-02-24 17:21:00,70.0,6.0,29.49,SW,234,0.0,25.0,8,0.00,,,0.00,,2013-02-24 23:21:00,
2013-02-24 17:31:00,70.0,6.0,29.49,SW,234,0.0,25.0,8,0.00,,,0.00,,2013-02-24 23:31:00,
2013-02-24 17:42:00,70.0,6.0,29.49,SW,234,0.0,25.0,8,0.00,,,0.00,,2013-02-24 23:42:00,
2013-02-24 17:52:00,69.0,2.0,29.50,NW,305,13.0,25.0,7,0.00,,,0.00,,2013-02-24 23:52:00,
2013-02-24 18:01:00,69.0,2.0,29.50,NW,305,13.0,25.0,7,0.00,,,0.00,,2013-02-25 00:01:00,
2013-02-24 18:11:00,69.0,2.0,29.50,NW,305,13.0,25.0,7,0.00,,,0.00,,2013-02-25 00:11:00,
2013-02-24 18:21:00,68.0,2.0,29.49,NW,306,4.0,22.0,7,0.00,,,0.00,,2013-02-25 00:21:00,
2013-02-24 18:31:00,68.0,2.0,29.49,NW,306,4.0,22.0,7,0.00,,,0.00,,2013-02-25 00:31:00,
2013-02-24 18:42:00,68.0,2.0,29.49,NW,306,4.0,22.0,7,0.00,,,0.00,,2013-02-25 00:42:00,
2013-02-24 18:52:00,66.0,0.0,29.50,West,277,13.0,22.0,7,0.00,,,0.00,,2013-02-25 00:52:00,
2013-02-24 19:01:00,66.0,0.0,29.50,West,277,13.0,22.0,7,0.00,,,0.00,,2013-02-25 01:01:00,
2013-02-24 19:11:00,66.0,0.0,29.50,West,277,13.0,22.0,7,0.00,,,0.00,,2013-02-25 01:11:00,
2013-02-24 19:21:00,63.0,1.0,29.53,WNW,289,7.0,19.0,8,0.00,,,0.00,,2013-02-25 01:21:00,
2013-02-24 19:31:00,63.0,1.0,29.53,WNW,289,7.0,19.0,8,0.00,,,0.00,,2013-02-25 01:31:00,
2013-02-24 19:42:00,63.0,1.0,29.53,WNW,289,7.0,19.0,8,0.00,,,0.00,,2013-02-25 01:42:00,
2013-02-24 19:52:00,61.0,2.0,29.54,WNW,302,10.0,13.0,9,0.00,,,0.00,,2013-02-25 01:52:00,
2013-02-24 20:01:00,61.0,2.0,29.54,WNW,302,10.0,13.0,9,0.00,,,0.00,,2013-02-25 02:01:00,
2013-02-24 20:11:00,61.0,2.0,29.55,West,275,10.0,24.0,9,0.00,,,0.00,,2013-02-25 02:11:00,
2013-02-24 20:21:00,61.0,2.0,29.55,West,275,10.0,24.0,9,0.00,,,0.00,,2013-02-25 02:21:00,
2013-02-24 20:31:00,61.0,2.0,29.55,West,275,10.0,24.0,9,0.00,,,0.00,,2013-02-25 02:31:00,
2013-02-24 20:42:00,61.0,2.0,29.55,West,275,10.0,24.0,9,0.00,,,0.00,,2013-02-25 02:42:00,
2013-02-24 20:52:00,59.0,3.0,29.56,West,260,6.0,18.0,10,0.00,,,0.00,,2013-02-25 02:52:00,
2013-02-24 21:01:00,59.0,3.0,29.56,West,260,6.0,18.0,10,0.00,,,0.00,,2013-02-25 03:01:00,
2013-02-24 21:11:00,59.0,3.0,29.56,West,260,6.0,18.0,10,0.00,,,0.00,,2013-02-25 03:11:00,
2013-02-24 21:21:00,56.0,7.0,29.57,WNW,287,10.0,21.0,14,0.00,,,0.00,,2013-02-25 03:21:00,
2013-02-24 21:31:00,56.0,7.0,29.57,WNW,287,10.0,21.0,14,0.00,,,0.00,,2013-02-25 03:31:00,
2013-02-24 21:42:00,56.0,7.0,29.57,WNW,287,10.0,21.0,14,0.00,,,0.00,,2013-02-25 03:42:00,
2013-02-24 21:52:00,54.0,14.0,29.59,WNW,287,12.0,18.0,20,0.00,,,0.00,,2013-02-25 03:52:00,
2013-02-24 22:11:00,54.0,14.0,29.59,WNW,287,12.0,18.0,20,0.00,,,0.00,,2013-02-25 04:11:00,
2013-02-24 22:21:00,49.0,16.0,29.63,NW,313,13.0,21.0,27,0.00,,,0.00,,2013-02-25 04:21:00,
2013-02-24 22:42:00,49.0,16.0,29.63,NW,313,13.0,21.0,27,0.00,,,0.00,,2013-02-25 04:42:00,
2013-02-24 22:52:00,44.0,12.0,29.65,West,274,17.0,28.0,27,0.00,,,0.00,,2013-02-25 04:52:00,
2013-02-24 23:01:00,44.0,12.0,29.65,West,274,17.0,28.0,27,0.00,,,0.00,,2013-02-25 05:01:00,
2013-02-24 23:11:00,44.0,12.0,29.65,West,274,17.0,28.0,27,0.00,,,0.00,,2013-02-25 05:11:00,
2013-02-24 23:22:00,41.0,8.0,29.64,NW,308,18.0,32.0,25,0.00,,,0.00,,2013-02-25 05:22:00,
2013-02-24 23:31:00,41.0,8.0,29.64,NW,308,18.0,32.0,25,0.00,,,0.00,,2013-02-25 05:31:00,
2013-02-24 23:42:00,41.0,8.0,29.64,NW,308,18.0,32.0,25,0.00,,,0.00,,2013-02-25 05:42:00,
2013-02-24 23:52:00,39.0,5.0,29.65,NW,306,18.0,40.0,24,0.00,,,0.00,,2013-02-25 05:52:00,